EGPD/ABZ METAR and TAF weather

Enter ICAO airport designator
Station Type Date Time Source
EGPD METAR 2022/11/26 09:20 UTC NOAA

EGPD 260920Z AUTO 18012KT 9999 FEW012 SCT023 10/08 Q1012 NOSIG


Station Type Date Time Source
EGPD Decoded METAR 2022/11/26 09:20 UTC NOAA

Aberdeen / Dyce, United Kingdom (EGPD) 57-12N 002-13W 0M
Nov 26, 2022 - 04:20 AM EST / 2022.11.26 0920 UTC
Wind: from the S (180 degrees) at 14 MPH (12 KT):0
Visibility: greater than 7 mile(s):0
Sky conditions: partly cloudy
Temperature: 50 F (10 C)
Dew Point: 46 F (8 C)
Relative Humidity: 87%
Pressure (altimeter): 29.88 in. Hg (1012 hPa)
ob: EGPD 260920Z AUTO 18012KT 9999 FEW012 SCT023 10/08 Q1012 NOSIG
cycle: 9

Station Type Date Time Source
EGPD TAF 2022/11/26 06:09 UTC NOAA

TAF EGPD 260457Z 2606/2706 17009KT 9999 SCT030 PROB30
TEMPO 2606/2610 8000 -SHRA BKN010
BECMG 2610/2613 17015G28KT
TEMPO 2610/2702 7000 -RA BKN010 PROB30
TEMPO 2612/2620 18025G38KT 4000 RADZ BKN008 PROB30
TEMPO 2620/2701 18025G38KT 4000 +RA RADZ BKN008
BECMG 2701/2704 20009KT

Example: see airport list